Time;durP1;ratioP1;P1;durP2;ratioP2;P2;SDS_P1;SDS_P2;PMS_P1;PMS_P2;Temp;Humidity;BMP_temperature;BMP_pressure;BME280_temperature;BME280_humidity;BME280_pressure;Samples;Min_cycle;Max_cycle;Signal;HPM_P1;HPM_P2
2022/11/30 00:01:57;;;;;;;10.38;7.90;;;8.80;99.90;;;;;;5073311;28;20481;-65
2022/11/30 00:04:22;;;;;;;8.73;6.45;;;8.80;99.90;;;;;;5094975;28;20058;-64
2022/11/30 00:06:48;;;;;;;12.15;7.80;;;8.80;99.90;;;;;;5091691;28;20032;-64
2022/11/30 00:09:14;;;;;;;9.63;8.05;;;8.80;99.90;;;;;;5073518;28;20032;-64
2022/11/30 00:11:39;;;;;;;12.32;7.22;;;8.80;99.90;;;;;;5091331;28;20020;-64
2022/11/30 00:14:05;;;;;;;9.50;7.60;;;8.80;99.90;;;;;;5091834;28;20016;-64
2022/11/30 00:16:30;;;;;;;9.60;7.97;;;8.80;99.90;;;;;;5094358;28;20032;-64
2022/11/30 00:18:56;;;;;;;11.30;8.25;;;8.80;99.90;;;;;;5073156;28;20031;-65
2022/11/30 00:21:21;;;;;;;12.85;9.50;;;8.80;99.90;;;;;;5094231;28;20035;-65
2022/11/30 00:23:47;;;;;;;11.70;9.20;;;8.80;99.90;;;;;;5093990;28;20051;-64
2022/11/30 00:26:15;;;;;;;12.75;9.40;;;8.80;99.90;;;;;;5097125;27;20023;-64
2022/11/30 00:28:43;;;;;;;10.98;8.93;;;8.80;99.90;;;;;;5074703;28;20023;-64
2022/11/30 00:31:12;;;;;;;12.43;9.45;;;8.80;99.90;;;;;;5092488;28;20043;-64
2022/11/30 00:33:38;;;;;;;;;;;8.80;99.90;;;;;;5094206;28;20071;-64
2022/11/30 00:36:07;;;;;;;11.73;8.43;;;8.80;99.90;;;;;;5091564;28;19908;-65
2022/11/30 00:38:34;;;;;;;11.13;8.90;;;8.80;99.90;;;;;;5091069;27;20069;-64
2022/11/30 00:41:00;;;;;;;12.65;10.45;;;8.80;99.90;;;;;;5081114;28;20508;-64
2022/11/30 00:43:26;;;;;;;14.90;10.73;;;8.80;99.90;;;;;;5091212;28;20039;-65
2022/11/30 00:45:52;;;;;;;14.93;11.85;;;8.80;99.90;;;;;;5092230;28;20028;-64
2022/11/30 00:48:18;;;;;;;16.15;12.38;;;8.80;99.90;;;;;;5093347;28;20405;-64
2022/11/30 00:50:43;;;;;;;16.25;12.48;;;8.70;99.90;;;;;;5090712;28;20046;-64
2022/11/30 00:53:09;;;;;;;15.38;12.00;;;8.80;99.90;;;;;;5090925;28;20020;-64
2022/11/30 00:55:34;;;;;;;16.67;13.05;;;8.80;99.90;;;;;;5095437;28;20172;-64
2022/11/30 00:58:00;;;;;;;16.15;12.35;;;8.80;99.90;;;;;;5090696;28;20020;-64
2022/11/30 01:00:26;;;;;;;15.85;11.95;;;8.70;99.90;;;;;;5090591;27;20331;-64
2022/11/30 01:02:56;;;;;;;17.08;12.90;;;8.70;99.90;;;;;;5091445;28;20015;-64
2022/11/30 01:05:22;;;;;;;15.63;11.98;;;8.70;99.90;;;;;;5090637;28;20493;-64
2022/11/30 01:07:47;;;;;;;15.93;12.32;;;8.70;99.90;;;;;;5090561;28;20035;-64
2022/11/30 01:10:13;;;;;;;18.08;12.98;;;8.70;99.90;;;;;;5072524;28;20032;-65
2022/11/30 01:12:38;;;;;;;16.83;13.25;;;8.70;99.90;;;;;;5090346;28;20023;-64
2022/11/30 01:15:04;;;;;;;21.98;16.67;;;8.70;99.90;;;;;;5090399;28;20024;-64
2022/11/30 01:17:30;;;;;;;19.35;15.07;;;8.60;99.90;;;;;;5090634;28;20020;-65
2022/11/30 01:19:55;;;;;;;18.92;14.32;;;8.60;99.90;;;;;;5090867;28;20026;-64
2022/11/30 01:22:21;;;;;;;18.60;13.48;;;8.60;99.90;;;;;;5082727;28;20486;-64
2022/11/30 01:24:46;;;;;;;19.92;14.88;;;8.60;99.90;;;;;;5094505;27;20107;-64
2022/11/30 01:27:12;;;;;;;21.25;16.13;;;8.60;99.90;;;;;;5092880;27;20035;-64
2022/11/30 01:29:37;;;;;;;19.05;13.88;;;8.60;99.90;;;;;;5089967;28;20027;-64
2022/11/30 01:32:03;;;;;;;18.30;13.32;;;8.60;99.90;;;;;;5092869;28;20125;-64
2022/11/30 01:34:29;;;;;;;17.60;12.75;;;8.60;99.90;;;;;;5095720;28;20401;-64
2022/11/30 01:36:54;;;;;;;17.90;12.98;;;8.60;99.90;;;;;;5092990;28;20035;-64
2022/11/30 01:39:20;;;;;;;15.60;11.45;;;8.60;99.90;;;;;;5091815;28;20031;-65
2022/11/30 01:41:45;;;;;;;15.15;11.38;;;8.60;99.90;;;;;;5092805;28;20093;-64
2022/11/30 01:44:14;;;;;;;18.50;12.88;;;8.60;99.90;;;;;;5095392;28;20103;-65
2022/11/30 01:46:44;;;;;;;16.38;12.88;;;8.60;99.90;;;;;;5093059;28;20069;-64
2022/11/30 01:49:10;;;;;;;15.75;12.02;;;8.60;99.90;;;;;;5090512;28;20028;-66
2022/11/30 01:51:51;;;;;;;15.27;11.70;;;8.60;99.90;;;;;;5089989;28;20031;-64
2022/11/30 01:54:25;;;;;;;17.23;12.05;;;8.60;99.90;;;;;;5073755;28;20030;-64
2022/11/30 01:56:55;;;;;;;16.35;12.10;;;8.60;99.90;;;;;;5073998;28;20028;-64
2022/11/30 01:59:22;;;;;;;15.45;11.48;;;8.60;99.90;;;;;;5089297;28;20020;-65
2022/11/30 02:01:48;;;;;;;14.95;11.50;;;8.60;99.90;;;;;;5089624;28;20035;-65
2022/11/30 02:04:41;;;;;;;15.38;12.00;;;8.60;99.90;;;;;;5090569;28;20141;-64
2022/11/30 02:07:07;;;;;;;18.38;12.25;;;8.60;99.90;;;;;;5090222;28;20039;-64
2022/11/30 02:09:40;;;;;;;15.63;11.48;;;8.60;99.90;;;;;;5089514;27;20477;-64
2022/11/30 02:12:10;;;;;;;16.02;12.00;;;8.60;99.90;;;;;;5091481;28;20043;-65
2022/11/30 02:14:44;;;;;;;17.50;12.43;;;8.60;99.90;;;;;;5111645;27;20024;-64
2022/11/30 02:17:37;;;;;;;15.25;11.20;;;8.60;99.90;;;;;;5089413;28;20554;-64
2022/11/30 02:20:45;;;;;;;15.13;11.68;;;8.60;99.90;;;;;;5070961;28;20047;-65
2022/11/30 02:23:22;;;;;;;16.50;12.43;;;8.60;99.90;;;;;;5092128;28;20022;-64
2022/11/30 02:26:07;;;;;;;14.80;11.80;;;8.60;99.90;;;;;;5093810;27;20115;-64
2022/11/30 02:28:52;;;;;;;15.57;11.55;;;8.60;99.90;;;;;;5091934;28;20077;-64
2022/11/30 02:31:25;;;;;;;15.82;12.23;;;8.60;99.90;;;;;;5088868;28;20040;-64
2022/11/30 02:33:51;;;;;;;17.08;12.48;;;8.50;99.90;;;;;;5094503;28;20044;-65
2022/11/30 02:36:19;;;;;;;16.15;11.82;;;8.50;99.90;;;;;;5091700;28;20111;-64
2022/11/30 02:38:45;;;;;;;17.23;12.65;;;8.50;99.90;;;;;;5090247;28;20028;-65
2022/11/30 02:41:12;;;;;;;15.40;11.38;;;8.60;99.90;;;;;;5086403;28;20408;-64
2022/11/30 02:43:38;;;;;;;16.35;11.27;;;8.50;99.90;;;;;;5115183;27;20032;-64
2022/11/30 02:46:30;;;;;;;16.00;11.68;;;8.50;99.90;;;;;;5090647;28;20426;-65
2022/11/30 02:49:07;;;;;;;17.48;13.10;;;8.50;99.90;;;;;;5091131;28;20079;-64
2022/11/30 02:51:35;;;;;;;15.95;11.10;;;8.50;99.90;;;;;;5089482;28;20035;-65
2022/11/30 02:54:01;;;;;;;16.02;11.55;;;8.40;99.90;;;;;;5088701;28;20039;-64
2022/11/30 02:56:27;;;;;;;16.20;11.52;;;8.50;99.90;;;;;;5091555;28;20139;-64
2022/11/30 02:58:53;;;;;;;15.52;11.63;;;8.50;99.90;;;;;;5095251;28;20038;-64
2022/11/30 03:01:18;;;;;;;15.20;11.30;;;8.40;99.90;;;;;;5088432;28;20016;-64
2022/11/30 03:03:44;;;;;;;14.90;11.05;;;8.40;99.90;;;;;;5089594;28;20089;-65
2022/11/30 03:06:10;;;;;;;15.25;12.05;;;8.40;99.90;;;;;;5092987;28;20504;-64
2022/11/30 03:08:35;;;;;;;17.23;12.45;;;8.40;99.90;;;;;;5096830;27;20028;-64
2022/11/30 03:11:03;;;;;;;16.85;12.52;;;8.40;99.90;;;;;;5114456;27;20156;-64
2022/11/30 03:13:33;;;;;;;17.08;11.95;;;8.40;99.90;;;;;;5094244;28;20061;-64
2022/11/30 03:16:08;;;;;;;16.10;12.57;;;8.40;99.90;;;;;;5095538;28;20020;-64
2022/11/30 03:18:34;;;;;;;19.10;12.05;;;8.40;99.90;;;;;;5095410;28;20456;-64
2022/11/30 03:21:00;;;;;;;15.90;12.10;;;8.30;99.90;;;;;;5093582;28;20024;-64
2022/11/30 03:23:25;;;;;;;15.70;11.63;;;8.30;99.90;;;;;;5083716;28;20019;-65
2022/11/30 03:25:56;;;;;;;16.42;11.43;;;8.30;99.90;;;;;;5094429;28;20542;-64
2022/11/30 03:28:21;;;;;;;15.88;11.40;;;8.30;99.90;;;;;;5095199;28;20031;-64
2022/11/30 03:30:48;;;;;;;18.33;11.90;;;8.30;99.90;;;;;;5095429;28;20089;-65
2022/11/30 03:33:13;;;;;;;17.65;12.18;;;8.30;99.90;;;;;;5094998;28;20047;-64
2022/11/30 03:35:39;;;;;;;17.83;13.13;;;8.20;99.90;;;;;;5097915;28;20035;-64
2022/11/30 03:38:05;;;;;;;17.15;11.82;;;8.30;99.90;;;;;;5092182;28;20028;-64
2022/11/30 03:40:30;;;;;;;16.27;12.02;;;8.30;99.90;;;;;;5085424;28;20020;-65
2022/11/30 03:42:56;;;;;;;15.73;11.98;;;8.30;99.90;;;;;;5092328;27;20036;-64
2022/11/30 03:45:21;;;;;;;17.55;12.23;;;8.20;99.90;;;;;;5094390;28;20385;-64
2022/11/30 03:47:47;;;;;;;17.50;12.18;;;8.20;99.90;;;;;;5094838;28;20062;-64
2022/11/30 03:50:12;;;;;;;16.25;12.68;;;8.20;99.90;;;;;;5086291;28;20028;-64
2022/11/30 03:52:38;;;;;;;16.73;11.70;;;8.20;99.90;;;;;;5079544;28;20060;-64
2022/11/30 03:55:03;;;;;;;15.00;11.43;;;8.20;99.90;;;;;;5094655;28;20069;-64
2022/11/30 03:57:29;;;;;;;17.83;11.65;;;8.20;99.90;;;;;;5093913;28;20024;-64
2022/11/30 03:59:54;;;;;;;17.33;12.18;;;8.20;99.90;;;;;;5091966;28;20028;-64
2022/11/30 04:02:20;;;;;;;17.23;12.35;;;8.20;99.90;;;;;;5094321;28;20069;-64
2022/11/30 04:04:45;;;;;;;15.23;11.55;;;8.20;99.90;;;;;;5093131;28;20477;-64
2022/11/30 04:07:11;;;;;;;16.13;11.95;;;8.20;99.90;;;;;;5091696;28;20032;-64
2022/11/30 04:09:36;;;;;;;16.35;12.60;;;8.20;99.90;;;;;;5091738;28;20447;-64
2022/11/30 04:12:02;;;;;;;16.00;12.32;;;8.20;99.90;;;;;;5094953;28;20031;-64
2022/11/30 04:14:27;;;;;;;17.55;12.30;;;8.20;99.90;;;;;;5097260;28;20027;-64
2022/11/30 04:16:53;;;;;;;18.00;12.32;;;8.20;99.90;;;;;;5075946;28;20020;-64
2022/11/30 04:19:18;;;;;;;16.67;12.65;;;8.10;99.90;;;;;;5091402;28;20434;-64
2022/11/30 04:21:44;;;;;;;14.45;10.90;;;8.10;99.90;;;;;;5093307;28;20028;-64
2022/11/30 04:24:09;;;;;;;17.50;11.68;;;8.10;99.90;;;;;;5076800;28;20028;-66
2022/11/30 04:26:35;;;;;;;18.02;12.75;;;8.10;99.90;;;;;;5094280;28;20115;-64
2022/11/30 04:29:00;;;;;;;17.25;12.00;;;8.10;99.90;;;;;;5096414;28;20396;-65
2022/11/30 04:31:26;;;;;;;15.43;12.00;;;8.10;99.90;;;;;;5094263;28;20028;-64
2022/11/30 04:33:53;;;;;;;16.10;11.68;;;8.10;99.90;;;;;;5072721;27;20571;-64
2022/11/30 04:36:19;;;;;;;16.95;12.20;;;8.10;99.90;;;;;;5094345;28;20103;-64
2022/11/30 04:38:45;;;;;;;16.65;11.90;;;8.10;99.90;;;;;;5091277;28;20021;-64
2022/11/30 04:41:11;;;;;;;18.85;13.38;;;8.00;99.90;;;;;;5091364;28;20065;-65
2022/11/30 04:43:36;;;;;;;16.10;11.35;;;8.00;99.90;;;;;;5092022;28;20028;-64
2022/11/30 04:46:03;;;;;;;15.45;11.77;;;8.00;99.90;;;;;;5072621;28;20034;-64
2022/11/30 04:48:29;;;;;;;15.82;11.77;;;8.00;99.90;;;;;;5095176;28;20543;-64
2022/11/30 04:51:00;;;;;;;14.35;11.68;;;8.00;99.90;;;;;;5095071;28;20024;-64
2022/11/30 04:53:26;;;;;;;17.50;12.55;;;8.00;99.90;;;;;;5096328;28;20468;-64
2022/11/30 04:55:51;;;;;;;17.25;12.32;;;8.00;99.90;;;;;;5091010;28;20039;-64
2022/11/30 04:58:17;;;;;;;14.45;11.07;;;8.00;99.90;;;;;;5090611;28;20026;-64
2022/11/30 05:00:42;;;;;;;17.25;12.30;;;7.90;99.90;;;;;;5081723;28;20031;-65
2022/11/30 05:03:08;;;;;;;16.13;12.15;;;7.90;99.90;;;;;;5091991;28;20075;-64
2022/11/30 05:05:33;;;;;;;15.90;12.05;;;7.90;99.90;;;;;;5094131;28;20024;-65
2022/11/30 05:07:59;;;;;;;16.10;11.93;;;7.80;99.90;;;;;;5090615;28;20020;-64
2022/11/30 05:10:26;;;;;;;16.95;12.52;;;7.80;99.90;;;;;;5091145;28;20866;-65
2022/11/30 05:12:51;;;;;;;15.27;11.63;;;7.80;99.90;;;;;;5090400;28;20032;-64
2022/11/30 05:15:17;;;;;;;13.45;10.75;;;7.80;99.90;;;;;;5090565;28;20138;-64
2022/11/30 05:17:43;;;;;;;16.38;10.82;;;7.70;99.90;;;;;;5090442;28;20020;-64
2022/11/30 05:20:09;;;;;;;14.07;10.18;;;7.70;99.90;;;;;;5072126;28;20469;-64
2022/11/30 05:22:35;;;;;;;14.23;10.60;;;7.60;99.90;;;;;;5093123;28;20473;-65
2022/11/30 05:25:00;;;;;;;15.50;11.38;;;7.60;99.90;;;;;;5090113;28;20020;-65
2022/11/30 05:27:26;;;;;;;15.65;11.30;;;7.60;99.90;;;;;;5090079;28;20020;-64
2022/11/30 05:29:51;;;;;;;16.20;11.80;;;7.50;99.90;;;;;;5094175;28;20055;-64
2022/11/30 05:32:17;;;;;;;16.17;11.43;;;7.50;99.90;;;;;;5093579;28;20084;-64
2022/11/30 05:34:43;;;;;;;14.60;10.40;;;7.50;99.90;;;;;;5095567;28;20020;-65
2022/11/30 05:37:08;;;;;;;13.98;10.55;;;7.50;99.90;;;;;;5089894;28;20530;-64
2022/11/30 05:39:34;;;;;;;15.55;11.38;;;7.50;99.90;;;;;;5092496;28;20449;-64
2022/11/30 05:41:59;;;;;;;13.80;10.75;;;7.50;99.90;;;;;;5093234;28;20456;-65
2022/11/30 05:44:25;;;;;;;14.38;11.20;;;7.50;99.90;;;;;;5089749;28;20023;-64
2022/11/30 05:46:50;;;;;;;13.10;9.52;;;7.50;99.90;;;;;;5092204;28;20024;-65
2022/11/30 05:49:16;;;;;;;10.23;7.95;;;7.50;99.90;;;;;;5091769;28;20061;-65
2022/11/30 05:51:41;;;;;;;10.52;7.90;;;7.40;99.90;;;;;;5092359;28;20028;-64
2022/11/30 05:54:07;;;;;;;11.15;7.57;;;7.40;99.90;;;;;;5096323;28;20515;-64
2022/11/30 05:56:32;;;;;;;7.65;5.50;;;7.30;99.90;;;;;;5097995;28;20468;-64
2022/11/30 05:58:58;;;;;;;6.22;4.88;;;7.20;99.90;;;;;;5090513;28;20028;-64
2022/11/30 06:01:25;;;;;;;8.95;5.38;;;7.10;99.90;;;;;;5093815;28;20019;-65
2022/11/30 06:03:52;;;;;;;6.53;4.80;;;7.10;99.90;;;;;;5092456;28;20206;-64
2022/11/30 06:06:18;;;;;;;6.55;5.00;;;7.00;99.90;;;;;;5097447;28;20104;-65
2022/11/30 06:08:45;;;;;;;6.50;4.32;;;6.90;99.90;;;;;;5117532;27;20057;-64
2022/11/30 06:11:11;;;;;;;5.57;4.13;;;6.90;99.90;;;;;;5092641;28;20009;-65
2022/11/30 06:13:38;;;;;;;7.18;5.03;;;6.80;99.90;;;;;;5070984;28;20107;-65
2022/11/30 06:16:04;;;;;;;6.93;5.20;;;6.80;99.90;;;;;;5089044;28;20027;-64
2022/11/30 06:18:31;;;;;;;7.90;5.70;;;6.80;99.90;;;;;;5092242;28;20077;-64
2022/11/30 06:21:05;;;;;;;6.60;4.78;;;6.80;99.90;;;;;;5089162;28;20020;-65
2022/11/30 06:23:31;;;;;;;8.50;6.13;;;6.80;99.90;;;;;;5089175;28;20058;-64
2022/11/30 06:25:57;;;;;;;7.82;6.13;;;6.70;99.90;;;;;;5089118;28;20035;-65
2022/11/30 06:28:23;;;;;;;6.93;5.22;;;6.80;99.90;;;;;;5076359;28;20020;-64
2022/11/30 06:30:49;;;;;;;6.47;5.05;;;6.80;99.90;;;;;;5072187;28;20081;-64
2022/11/30 06:33:15;;;;;;;6.63;5.05;;;6.70;99.90;;;;;;5091769;28;20139;-65
2022/11/30 06:35:45;;;;;;;4.68;3.90;;;6.70;99.90;;;;;;5091381;28;20067;-64
2022/11/30 06:38:11;;;;;;;4.55;3.75;;;6.60;99.90;;;;;;5072805;28;20020;-65
2022/11/30 06:40:36;;;;;;;3.60;2.90;;;6.60;99.90;;;;;;5069982;28;20469;-65
2022/11/30 06:43:02;;;;;;;2.75;2.22;;;6.50;99.90;;;;;;5094464;28;20032;-64
2022/11/30 06:45:27;;;;;;;2.75;2.17;;;6.50;99.90;;;;;;5091491;28;20028;-64
2022/11/30 06:47:56;;;;;;;3.80;2.83;;;6.40;99.90;;;;;;5088730;28;20034;-64
2022/11/30 06:50:23;;;;;;;3.87;3.20;;;6.40;99.90;;;;;;5093072;28;20036;-64
2022/11/30 06:52:48;;;;;;;5.38;3.60;;;6.30;99.90;;;;;;5110175;28;20081;-64
2022/11/30 06:55:14;;;;;;;4.90;3.47;;;6.30;99.90;;;;;;5094831;28;20056;-64
2022/11/30 06:57:39;;;;;;;5.40;3.88;;;6.30;99.90;;;;;;5097180;28;20035;-64
2022/11/30 07:00:06;;;;;;;4.00;3.33;;;6.30;99.90;;;;;;5105448;28;20079;-64
2022/11/30 07:02:32;;;;;;;4.93;3.38;;;6.30;99.90;;;;;;5094983;28;20023;-64
2022/11/30 07:04:58;;;;;;;4.63;3.20;;;6.30;99.90;;;;;;5113019;28;20422;-64
2022/11/30 07:07:23;;;;;;;5.63;3.65;;;6.30;99.90;;;;;;5101528;28;20025;-64
2022/11/30 07:09:49;;;;;;;5.07;3.72;;;6.20;99.90;;;;;;5094405;28;20050;-64
2022/11/30 07:12:15;;;;;;;5.93;3.40;;;6.20;99.90;;;;;;5081291;28;20030;-64
2022/11/30 07:14:41;;;;;;;3.85;2.90;;;6.20;99.90;;;;;;5094529;28;20020;-64
2022/11/30 07:17:06;;;;;;;4.78;3.40;;;6.20;99.90;;;;;;5102815;28;20028;-64
2022/11/30 07:19:35;;;;;;;6.35;4.07;;;6.10;99.90;;;;;;5093543;28;20039;-64
2022/11/30 07:22:01;;;;;;;6.60;5.18;;;6.10;99.90;;;;;;5109213;28;20040;-64
2022/11/30 07:27:11;;;;;;;5.50;4.18;;;6.10;99.90;;;;;;5107625;28;20027;-64
2022/11/30 07:29:36;;;;;;;5.47;4.60;;;6.10;99.90;;;;;;5108394;28;20020;-64
2022/11/30 07:32:02;;;;;;;5.93;4.82;;;6.10;99.90;;;;;;5109328;28;20112;-63
2022/11/30 07:34:28;;;;;;;4.90;4.00;;;6.00;99.90;;;;;;5109482;28;20106;-64
2022/11/30 07:36:53;;;;;;;4.15;3.33;;;6.00;99.90;;;;;;5106646;28;20047;-64
2022/11/30 07:39:19;;;;;;;3.80;3.13;;;6.00;99.90;;;;;;5118303;27;20376;-64
2022/11/30 07:41:44;;;;;;;4.10;2.85;;;5.90;99.90;;;;;;5109543;28;20533;-64
2022/11/30 07:44:10;;;;;;;3.35;2.53;;;5.90;99.90;;;;;;5109457;28;20012;-64
2022/11/30 07:46:37;;;;;;;3.20;2.53;;;6.00;99.90;;;;;;5092452;28;20028;-64
2022/11/30 07:49:07;;;;;;;3.08;2.60;;;6.00;99.90;;;;;;5101777;28;20031;-64
2022/11/30 07:51:33;;;;;;;3.67;2.92;;;6.00;99.90;;;;;;5111816;28;20377;-64
2022/11/30 07:53:58;;;;;;;4.20;3.08;;;6.00;99.90;;;;;;5087080;28;20020;-64
2022/11/30 07:56:25;;;;;;;4.53;3.30;;;6.00;99.90;;;;;;5112739;28;20473;-64
2022/11/30 07:58:53;;;;;;;4.32;3.33;;;6.00;99.90;;;;;;5108574;28;20028;-64
2022/11/30 08:01:21;;;;;;;5.00;4.03;;;6.10;99.90;;;;;;5077078;28;20031;-64
2022/11/30 08:03:47;;;;;;;5.03;3.95;;;6.10;99.90;;;;;;5107615;27;20030;-64
2022/11/30 08:06:24;;;;;;;6.22;4.35;;;6.10;99.90;;;;;;5095474;28;20035;-64
2022/11/30 08:08:52;;;;;;;5.43;4.03;;;6.20;99.90;;;;;;5108679;28;20025;-64
2022/11/30 08:11:21;;;;;;;6.32;4.53;;;6.10;99.90;;;;;;5098532;28;20027;-64
2022/11/30 08:13:47;;;;;;;5.30;4.20;;;6.20;99.90;;;;;;5095247;28;20023;-64
2022/11/30 08:16:15;;;;;;;6.15;4.82;;;6.20;99.90;;;;;;5097850;28;20024;-64
2022/11/30 08:18:41;;;;;;;6.85;5.07;;;6.20;99.90;;;;;;5107293;28;20028;-64
2022/11/30 08:21:09;;;;;;;7.60;4.80;;;6.30;99.90;;;;;;5077849;28;20397;-64
2022/11/30 08:23:37;;;;;;;4.40;3.55;;;6.30;99.90;;;;;;5097151;28;20032;-64
2022/11/30 08:26:05;;;;;;;4.68;3.08;;;6.30;99.90;;;;;;5109700;28;20077;-64
2022/11/30 08:28:32;;;;;;;5.15;3.20;;;6.40;99.90;;;;;;5103461;28;20023;-64
2022/11/30 08:31:07;;;;;;;5.60;3.67;;;6.40;99.90;;;;;;5113868;28;20417;-64
2022/11/30 08:33:34;;;;;;;7.40;4.90;;;6.50;99.90;;;;;;5110099;28;20130;-64
2022/11/30 08:36:18;;;;;;;9.82;6.35;;;6.50;99.90;;;;;;5113079;28;20058;-64
2022/11/30 08:38:45;;;;;;;8.75;6.53;;;6.50;99.90;;;;;;5104001;28;20066;-64
2022/11/30 08:41:13;;;;;;;11.60;7.28;;;6.60;99.90;;;;;;5096433;28;20019;-64
2022/11/30 08:43:39;;;;;;;13.50;9.00;;;6.70;99.90;;;;;;5094746;28;20095;-64
2022/11/30 08:46:07;;;;;;;13.05;9.32;;;6.80;99.90;;;;;;5094687;28;20091;-64
2022/11/30 08:48:34;;;;;;;14.75;10.30;;;6.90;99.90;;;;;;5104197;28;20023;-64
2022/11/30 08:51:00;;;;;;;15.30;10.65;;;6.90;99.90;;;;;;5114991;28;20419;-64
2022/11/30 08:53:26;;;;;;;15.45;10.68;;;7.00;99.90;;;;;;5108048;28;20477;-64
2022/11/30 08:56:07;;;;;;;14.63;10.23;;;7.00;99.90;;;;;;5094046;28;20039;-64
2022/11/30 08:58:34;;;;;;;14.65;10.88;;;7.10;99.90;;;;;;5094032;28;20103;-64
2022/11/30 09:01:08;;;;;;;15.43;11.32;;;7.20;99.90;;;;;;5109946;28;20084;-64
2022/11/30 09:03:34;;;;;;;14.48;10.23;;;7.20;99.90;;;;;;5113675;28;20081;-64
2022/11/30 09:06:07;;;;;;;15.32;11.18;;;7.20;99.90;;;;;;5110616;28;20497;-64
2022/11/30 09:08:33;;;;;;;17.02;11.35;;;7.20;99.90;;;;;;5105415;28;20401;-64
2022/11/30 09:11:11;;;;;;;14.75;10.98;;;7.30;99.90;;;;;;5090788;28;20473;-64
2022/11/30 09:13:36;;;;;;;15.30;10.75;;;7.30;99.90;;;;;;5094310;28;20043;-64
2022/11/30 09:16:02;;;;;;;16.48;11.57;;;7.30;99.90;;;;;;5093820;28;20431;-64
2022/11/30 09:18:28;;;;;;;17.02;12.13;;;7.30;99.90;;;;;;5093962;28;20025;-64
2022/11/30 09:21:02;;;;;;;18.63;12.90;;;7.30;99.90;;;;;;5109627;27;20066;-64
2022/11/30 09:23:28;;;;;;;18.33;13.05;;;7.30;99.90;;;;;;5094014;28;20036;-64
2022/11/30 09:25:59;;;;;;;19.40;14.60;;;7.30;99.90;;;;;;5093799;28;20032;-64
2022/11/30 09:28:25;;;;;;;19.38;14.27;;;7.40;99.90;;;;;;5093969;28;20036;-63
2022/11/30 09:30:51;;;;;;;21.67;14.73;;;7.30;99.90;;;;;;5094432;28;20016;-63
2022/11/30 09:33:17;;;;;;;25.58;18.48;;;7.30;99.90;;;;;;5093655;28;20047;-63
2022/11/30 09:35:42;;;;;;;25.70;18.20;;;7.40;99.90;;;;;;5093592;28;20024;-64
2022/11/30 09:38:08;;;;;;;28.70;20.48;;;7.40;99.90;;;;;;5095920;28;20028;-64
2022/11/30 09:40:39;;;;;;;28.08;19.65;;;7.30;99.90;;;;;;5109115;28;20077;-64
2022/11/30 09:43:07;;;;;;;29.55;20.75;;;7.30;99.90;;;;;;5111921;28;20015;-63
2022/11/30 09:45:35;;;;;;;25.63;18.60;;;7.30;99.90;;;;;;5107645;28;20552;-64
2022/11/30 09:48:24;;;;;;;24.30;16.50;;;7.20;99.90;;;;;;5110175;28;20023;-64
2022/11/30 09:50:51;;;;;;;26.02;17.85;;;7.30;99.90;;;;;;5111640;28;20559;-64
2022/11/30 09:53:39;;;;;;;22.98;16.65;;;7.20;99.90;;;;;;5086331;28;20107;-63
2022/11/30 09:56:23;;;;;;;26.85;18.52;;;7.30;99.90;;;;;;5074826;28;20728;-64
2022/11/30 09:59:05;;;;;;;23.77;16.63;;;7.30;99.90;;;;;;5087680;28;20483;-64
2022/11/30 10:01:30;;;;;;;29.05;18.88;;;7.30;99.90;;;;;;5101059;28;20020;-64
2022/11/30 10:03:57;;;;;;;25.67;18.70;;;7.30;99.90;;;;;;5112483;28;20043;-64
2022/11/30 10:07:04;;;;;;;24.45;17.55;;;7.30;99.90;;;;;;5082252;28;20023;-64
2022/11/30 10:09:49;;;;;;;25.63;17.25;;;7.30;99.90;;;;;;5030423;28;20029;-64
2022/11/30 10:12:27;;;;;;;27.05;18.05;;;7.40;99.90;;;;;;5091519;28;20524;-64
2022/11/30 10:15:25;;;;;;;26.50;17.95;;;7.40;99.90;;;;;;5098451;28;20471;-63
2022/11/30 10:18:14;;;;;;;23.90;16.58;;;7.50;99.90;;;;;;5092888;28;20081;-64
2022/11/30 10:20:53;;;;;;;26.15;16.92;;;7.50;99.90;;;;;;5106131;28;20024;-64
2022/11/30 10:23:48;;;;;;;23.65;15.57;;;7.70;99.90;;;;;;5097026;28;20019;-64
2022/11/30 10:26:15;;;;;;;24.20;16.55;;;7.90;99.90;;;;;;5107715;28;20026;-64
2022/11/30 10:28:56;;;;;;;28.20;19.10;;;8.10;99.90;;;;;;5111319;28;20024;-64
2022/11/30 10:31:36;;;;;;;26.55;17.85;;;8.30;99.90;;;;;;5092686;28;20024;-64
2022/11/30 10:34:20;;;;;;;24.00;16.60;;;8.50;99.90;;;;;;5096522;28;20039;-64
2022/11/30 10:36:54;;;;;;;26.33;17.13;;;9.00;99.90;;;;;;5109864;28;20118;-64
2022/11/30 10:39:46;;;;;;;22.33;15.65;;;9.50;99.90;;;;;;5092882;28;20016;-64
2022/11/30 10:42:19;;;;;;;21.13;16.27;;;10.60;99.90;;;;;;5104258;28;20043;-64
2022/11/30 10:44:58;;;;;;;23.42;16.33;;;11.20;99.90;;;;;;5104097;28;20024;-64
2022/11/30 10:47:30;;;;;;;24.27;16.63;;;11.70;99.90;;;;;;5108060;27;20396;-64
2022/11/30 10:49:55;;;;;;;22.88;16.52;;;12.10;99.90;;;;;;5104982;28;20507;-64
2022/11/30 10:52:50;;;;;;;18.08;14.52;;;12.80;99.90;;;;;;5095072;28;20032;-64
2022/11/30 10:55:23;;;;;;;18.60;14.00;;;13.30;99.90;;;;;;5092464;28;20119;-64
2022/11/30 10:57:52;;;;;;;19.92;14.73;;;13.40;99.90;;;;;;5101890;28;20063;-64
2022/11/30 11:00:18;;;;;;;15.43;11.98;;;13.50;99.90;;;;;;5109895;28;20027;-64
2022/11/30 11:02:45;;;;;;;19.40;14.98;;;14.00;99.90;;;;;;5086415;28;20016;-64
2022/11/30 11:05:14;;;;;;;17.00;13.27;;;14.50;99.90;;;;;;5111149;28;20104;-64
2022/11/30 11:07:47;;;;;;;13.57;11.30;;;15.20;99.90;;;;;;5110496;28;20859;-64
2022/11/30 11:10:19;;;;;;;13.80;11.25;;;16.00;99.90;;;;;;5108253;28;20058;-65
2022/11/30 11:12:51;;;;;;;15.25;12.40;;;16.80;99.90;;;;;;5107610;28;20065;-64
2022/11/30 11:15:30;;;;;;;17.30;13.65;;;17.20;99.90;;;;;;5109124;28;20059;-64
2022/11/30 11:18:11;;;;;;;14.35;11.98;;;17.40;98.80;;;;;;5096838;28;20032;-64
2022/11/30 11:20:42;;;;;;;17.67;12.38;;;17.80;97.60;;;;;;5108975;28;20019;-65
2022/11/30 11:23:23;;;;;;;14.40;11.90;;;18.20;96.50;;;;;;5106646;28;20024;-65
2022/11/30 11:25:52;;;;;;;12.43;10.60;;;18.80;95.20;;;;;;5088702;28;20152;-64
2022/11/30 11:28:20;;;;;;;10.70;9.53;;;19.30;93.40;;;;;;5108337;28;20039;-65
2022/11/30 11:30:46;;;;;;;11.15;9.07;;;19.70;92.50;;;;;;5096275;28;20020;-65
2022/11/30 11:33:11;;;;;;;11.75;9.93;;;20.40;91.60;;;;;;5098009;28;20046;-65
2022/11/30 11:35:48;;;;;;;12.27;10.25;;;20.90;88.90;;;;;;5100773;28;20531;-65
2022/11/30 11:38:49;;;;;;;10.77;9.27;;;21.40;84.80;;;;;;5099441;28;20034;-65
2022/11/30 11:41:36;;;;;;;8.75;7.85;;;22.20;81.40;;;;;;5033544;28;20104;-65
2022/11/30 11:44:20;;;;;;;9.40;8.02;;;23.20;77.80;;;;;;5094583;27;20024;-65
2022/11/30 11:47:00;;;;;;;8.65;7.75;;;23.90;73.20;;;;;;5096119;28;20143;-65
2022/11/30 11:49:33;;;;;;;8.32;7.38;;;25.10;68.80;;;;;;5108747;28;20027;-65
2022/11/30 11:52:02;;;;;;;8.45;7.00;;;26.30;65.00;;;;;;5096028;28;20021;-65
2022/11/30 11:54:40;;;;;;;9.13;8.00;;;27.20;61.60;;;;;;5095345;28;20024;-65
2022/11/30 11:57:15;;;;;;;8.07;7.15;;;28.10;57.60;;;;;;5095655;28;20024;-65
2022/11/30 12:00:04;;;;;;;7.47;6.75;;;28.70;54.90;;;;;;5095254;28;20556;-65
2022/11/30 12:02:38;;;;;;;;;;;29.00;52.60;;;;;;5086737;28;20067;-65
2022/11/30 12:05:25;;;;;;;7.45;6.72;;;29.20;53.50;;;;;;5106625;28;19904;-65
2022/11/30 12:08:09;;;;;;;7.88;7.03;;;29.70;51.10;;;;;;5095676;28;20493;-65
2022/11/30 12:10:40;;;;;;;7.57;6.88;;;30.00;49.70;;;;;;5125106;27;20463;-65
2022/11/30 12:13:39;;;;;;;7.65;6.85;;;30.30;47.80;;;;;;5095065;28;20443;-65
2022/11/30 12:16:11;;;;;;;7.78;6.97;;;30.60;47.70;;;;;;5050932;28;20032;-65
2022/11/30 12:19:14;;;;;;;7.97;7.18;;;30.50;45.90;;;;;;5105570;27;20070;-65
2022/11/30 12:22:00;;;;;;;11.05;8.88;;;29.40;45.50;;;;;;5095313;28;20020;-65
2022/11/30 12:25:05;;;;;;;11.25;9.45;;;27.70;46.70;;;;;;5105114;28;20442;-65
2022/11/30 12:28:17;;;;;;;9.45;8.43;;;25.90;46.90;;;;;;5094864;28;20496;-65
2022/11/30 12:31:12;;;;;;;9.95;7.90;;;24.20;48.90;;;;;;5051221;28;20413;-65
2022/11/30 12:33:54;;;;;;;8.63;7.72;;;23.60;50.80;;;;;;5057556;28;20053;-65
2022/11/30 12:36:46;;;;;;;12.90;9.80;;;23.90;49.50;;;;;;5102410;28;20087;-65
2022/11/30 12:39:45;;;;;;;8.45;6.95;;;24.50;48.60;;;;;;5109871;28;20023;-65
2022/11/30 12:42:23;;;;;;;7.35;6.57;;;25.00;48.20;;;;;;5110178;28;20030;-65
2022/11/30 12:45:24;;;;;;;7.38;6.68;;;26.00;47.80;;;;;;5104217;28;20016;-65
2022/11/30 12:48:15;;;;;;;7.93;6.97;;;27.20;46.40;;;;;;5048692;28;20040;-65
2022/11/30 12:51:00;;;;;;;7.72;6.95;;;26.70;45.00;;;;;;5110587;28;20016;-65
2022/11/30 12:53:39;;;;;;;8.02;7.22;;;26.00;45.70;;;;;;5106836;27;20024;-65
2022/11/30 12:56:18;;;;;;;;;;;25.50;46.20;;;;;;5111084;28;20477;-65
2022/11/30 12:58:49;;;;;;;7.75;7.03;;;24.90;44.60;;;;;;5100536;28;19911;-65
2022/11/30 13:01:33;;;;;;;9.70;8.70;;;23.70;46.70;;;;;;5108074;28;20023;-65
2022/11/30 13:04:24;;;;;;;9.77;8.77;;;22.50;48.50;;;;;;5108728;28;20058;-65